createdAt,value
2018-04-22T00:00:27.519Z,16.10
2018-04-22T00:03:08.042Z,16.10
2018-04-22T00:05:37.021Z,16.10
2018-04-22T00:08:05.472Z,16.10
2018-04-22T00:10:33.858Z,16.00
2018-04-22T00:13:12.024Z,16.00
2018-04-22T00:15:56.220Z,16.00
2018-04-22T00:18:37.988Z,16.00
2018-04-22T00:21:09.130Z,15.90
2018-04-22T00:23:41.577Z,15.80
2018-04-22T00:26:13.508Z,15.80
2018-04-22T00:28:43.074Z,15.70
2018-04-22T00:31:11.463Z,15.70
2018-04-22T00:33:39.851Z,15.70
2018-04-22T00:36:08.253Z,15.70
2018-04-22T00:38:36.631Z,15.60
2018-04-22T00:41:05.039Z,15.60
2018-04-22T00:43:33.488Z,15.50
2018-04-22T00:46:02.129Z,15.40
2018-04-22T00:48:30.505Z,15.40
2018-04-22T00:50:58.895Z,15.40
2018-04-22T00:53:27.326Z,15.30
2018-04-22T00:55:56.492Z,15.30
2018-04-22T00:58:24.902Z,15.20
2018-04-22T01:00:54.049Z,15.20
2018-04-22T01:03:22.620Z,15.20
2018-04-22T01:05:50.997Z,15.20
2018-04-22T01:08:19.374Z,15.20
2018-04-22T01:10:47.780Z,15.20
2018-04-22T01:13:16.152Z,15.20
2018-04-22T01:15:44.556Z,15.20
2018-04-22T01:18:12.951Z,15.20
2018-04-22T01:20:42.121Z,15.10
2018-04-22T01:23:10.500Z,15.10
2018-04-22T01:25:38.880Z,15.10
2018-04-22T01:28:08.048Z,15.10
2018-04-22T01:30:36.433Z,15.10
2018-04-22T01:33:04.833Z,15.20
2018-04-22T01:35:33.295Z,15.10
2018-04-22T01:38:01.694Z,15.00
2018-04-22T01:40:30.099Z,15.10
2018-04-22T01:42:59.245Z,15.10
2018-04-22T01:45:27.648Z,15.10
2018-04-22T01:47:56.033Z,15.20
2018-04-22T01:50:24.790Z,15.10
2018-04-22T01:52:53.165Z,15.00
2018-04-22T01:55:21.546Z,15.00
2018-04-22T01:57:49.948Z,14.90
2018-04-22T02:00:18.325Z,14.80
2018-04-22T02:02:46.721Z,14.80
2018-04-22T02:05:15.106Z,14.80
2018-04-22T02:07:44.270Z,14.80
2018-04-22T02:10:12.675Z,14.80
2018-04-22T02:12:41.060Z,14.70
2018-04-22T02:15:10.222Z,14.70
2018-04-22T02:17:38.614Z,14.70
2018-04-22T02:20:08.128Z,14.80
2018-04-22T02:22:36.522Z,14.80
2018-04-22T02:25:05.776Z,14.70
2018-04-22T02:27:34.296Z,14.70
2018-04-22T02:30:02.674Z,14.70
2018-04-22T02:32:31.209Z,14.60
2018-04-22T02:34:59.584Z,14.50
2018-04-22T02:37:27.981Z,14.40
2018-04-22T02:39:56.390Z,14.40
2018-04-22T02:42:24.769Z,14.30
2018-04-22T02:44:53.300Z,14.30
2018-04-22T02:47:21.675Z,14.30
2018-04-22T02:49:50.057Z,14.30
2018-04-22T02:52:18.457Z,14.30
2018-04-22T02:54:46.837Z,14.30
2018-04-22T02:57:15.234Z,14.40
2018-04-22T02:59:43.609Z,14.40
2018-04-22T03:02:12.149Z,14.40
2018-04-22T03:04:40.521Z,14.30
2018-04-22T03:07:08.893Z,14.30
2018-04-22T03:09:37.301Z,14.20
2018-04-22T03:12:05.684Z,14.20
2018-04-22T03:14:34.081Z,14.20
2018-04-22T03:17:02.469Z,14.10
2018-04-22T03:19:31.117Z,14.10
2018-04-22T03:21:59.500Z,14.00
2018-04-22T03:24:27.871Z,13.90
2018-04-22T03:26:56.289Z,13.90
2018-04-22T03:29:25.478Z,13.80
2018-04-22T03:31:53.867Z,13.80
2018-04-22T03:34:23.018Z,13.80
2018-04-22T03:36:51.577Z,13.70
2018-04-22T03:39:19.944Z,13.70
2018-04-22T03:41:49.084Z,13.60
2018-04-22T03:44:17.484Z,13.60
2018-04-22T03:46:45.871Z,13.60
2018-04-22T03:49:14.624Z,13.50
2018-04-22T03:51:42.996Z,13.30
2018-04-22T03:54:11.372Z,13.40
2018-04-22T03:56:39.774Z,13.40
2018-04-22T03:59:08.156Z,13.50
2018-04-22T04:01:36.560Z,13.50
2018-04-22T04:04:04.928Z,13.50
2018-04-22T04:06:33.572Z,13.40
2018-04-22T04:09:01.939Z,13.30
2018-04-22T04:11:30.320Z,13.20
2018-04-22T04:13:58.724Z,13.20
2018-04-22T04:16:27.106Z,13.30
2018-04-22T04:19:13.442Z,13.20
2018-04-22T04:21:59.596Z,13.10
2018-04-22T04:27:51.106Z,13.00
2018-04-22T04:30:19.510Z,13.00
2018-04-22T04:32:47.893Z,13.00
2018-04-22T04:35:16.301Z,13.10
2018-04-22T04:37:44.672Z,13.10
2018-04-22T04:40:13.316Z,13.20
2018-04-22T04:42:41.685Z,13.30
2018-04-22T04:45:10.061Z,13.20
2018-04-22T04:47:38.477Z,13.20
2018-04-22T04:50:06.850Z,13.30
2018-04-22T04:52:35.318Z,13.40
2018-04-22T04:55:03.702Z,13.50
2018-04-22T04:57:32.130Z,13.50
2018-04-22T05:00:01.276Z,13.50
2018-04-22T05:02:29.653Z,13.50
2018-04-22T05:04:58.047Z,13.40
2018-04-22T05:07:26.437Z,13.50
2018-04-22T05:09:55.590Z,13.50
2018-04-22T05:12:23.967Z,13.50
2018-04-22T05:14:52.577Z,13.50
2018-04-22T05:17:20.973Z,13.30
2018-04-22T05:19:49.353Z,13.30
2018-04-22T05:22:17.789Z,13.40
2018-04-22T05:24:46.164Z,13.50
2018-04-22T05:27:14.561Z,13.70
2018-04-22T05:29:42.943Z,13.90
2018-04-22T05:32:11.730Z,14.00
2018-04-22T05:34:40.109Z,14.10
2018-04-22T05:37:08.489Z,14.10
2018-04-22T05:39:36.896Z,14.00
2018-04-22T05:42:05.425Z,14.00
2018-04-22T05:44:33.820Z,13.90
2018-04-22T05:47:02.209Z,13.90
2018-04-22T05:49:30.786Z,14.00
2018-04-22T05:51:59.190Z,14.10
2018-04-22T05:54:27.581Z,14.10
2018-04-22T05:56:55.988Z,14.10
2018-04-22T05:59:25.160Z,14.40
2018-04-22T06:01:53.569Z,14.40
2018-04-22T06:04:21.959Z,14.50
2018-04-22T06:06:50.685Z,14.60
2018-04-22T06:09:19.061Z,14.70
2018-04-22T06:11:47.461Z,14.80
2018-04-22T06:14:15.880Z,15.00
2018-04-22T06:16:44.273Z,15.10
2018-04-22T06:19:12.681Z,15.20
2018-04-22T06:21:41.068Z,15.40
2018-04-22T06:24:10.448Z,15.80
2018-04-22T06:26:38.897Z,15.70
2018-04-22T06:29:07.292Z,16.00
2018-04-22T06:31:35.973Z,16.20
2018-04-22T06:34:04.374Z,16.20
2018-04-22T06:36:32.777Z,16.30
2018-04-22T06:39:01.571Z,16.60
2018-04-22T06:41:30.755Z,16.90
2018-04-22T06:43:59.140Z,16.90
2018-04-22T06:46:27.520Z,17.00
2018-04-22T06:48:55.929Z,17.20
2018-04-22T06:51:24.317Z,17.40
2018-04-22T06:53:52.718Z,17.60
2018-04-22T06:56:21.097Z,17.80
2018-04-22T06:58:50.001Z,17.90
2018-04-22T07:01:18.393Z,18.10
2018-04-22T07:03:46.860Z,18.40
2018-04-22T07:06:15.280Z,18.50
2018-04-22T07:08:44.431Z,18.90
2018-04-22T07:11:12.838Z,18.90
2018-04-22T07:13:41.220Z,19.20
2018-04-22T07:16:09.965Z,19.40
2018-04-22T07:18:38.356Z,19.60
2018-04-22T07:21:07.069Z,19.70
2018-04-22T07:23:35.479Z,19.90
2018-04-22T07:26:03.878Z,20.10
2018-04-22T07:28:32.278Z,20.30
2018-04-22T07:31:00.657Z,20.50
2018-04-22T07:33:29.320Z,20.60
2018-04-22T07:35:57.694Z,20.80
2018-04-22T07:38:26.108Z,21.00
2018-04-22T07:40:54.512Z,21.20
2018-04-22T07:43:22.929Z,21.40
2018-04-22T07:45:51.334Z,21.60
2018-04-22T07:48:19.712Z,21.80
2018-04-22T07:50:48.128Z,22.00
2018-04-22T07:53:16.505Z,22.20
2018-04-22T07:55:44.880Z,22.30
2018-04-22T07:58:14.785Z,22.30
2018-04-22T08:00:44.674Z,22.40
2018-04-22T08:03:13.254Z,22.40
2018-04-22T08:05:41.656Z,22.50
2018-04-22T08:08:10.037Z,22.60
2018-04-22T08:10:38.441Z,22.70
2018-04-22T08:13:07.589Z,23.00
2018-04-22T08:15:36.071Z,23.00
2018-04-22T08:18:04.446Z,23.20
2018-04-22T08:20:32.825Z,23.40
2018-04-22T08:23:01.227Z,23.40
2018-04-22T08:25:29.600Z,23.60
2018-04-22T08:27:58.028Z,23.70
2018-04-22T08:30:26.446Z,23.60
2018-04-22T08:32:54.824Z,23.90
2018-04-22T08:35:23.221Z,24.10
2018-04-22T08:37:51.596Z,24.30
2018-04-22T08:40:20.008Z,24.60
2018-04-22T08:42:49.157Z,24.80
2018-04-22T08:45:17.585Z,24.80
2018-04-22T08:47:58.444Z,25.10
2018-04-22T08:50:40.633Z,25.10
2018-04-22T08:53:24.462Z,25.30
2018-04-22T08:55:57.155Z,25.40
2018-04-22T08:58:28.716Z,25.60
2018-04-22T09:00:58.973Z,25.60
2018-04-22T09:03:28.665Z,25.50
2018-04-22T09:06:02.557Z,25.80
2018-04-22T09:08:42.818Z,25.80
2018-04-22T09:11:13.529Z,26.00
2018-04-22T09:13:48.591Z,26.10
2018-04-22T09:16:17.522Z,26.20
2018-04-22T09:18:53.584Z,26.50
2018-04-22T09:21:28.322Z,26.60
2018-04-22T09:23:57.817Z,26.80
2018-04-22T09:26:26.247Z,26.80
2018-04-22T09:28:55.400Z,27.10
2018-04-22T09:31:23.788Z,27.10
2018-04-22T09:33:52.184Z,27.50
2018-04-22T09:36:22.069Z,27.90
2018-04-22T09:38:50.477Z,27.90
2018-04-22T09:41:18.865Z,28.00
2018-04-22T09:43:47.499Z,28.20
2018-04-22T09:46:15.905Z,28.60
2018-04-22T09:48:51.877Z,28.90
2018-04-22T09:51:21.035Z,29.00
2018-04-22T09:53:50.741Z,29.00
2018-04-22T09:56:20.047Z,29.30
2018-04-22T09:58:50.366Z,29.40
2018-04-22T10:01:22.695Z,29.40
2018-04-22T10:03:52.655Z,29.80
2018-04-22T10:06:22.948Z,29.80
2018-04-22T10:08:54.692Z,29.60
2018-04-22T10:11:25.036Z,29.70
2018-04-22T10:13:55.025Z,29.80
2018-04-22T10:16:25.637Z,30.10
2018-04-22T10:18:56.495Z,30.00
2018-04-22T10:21:27.112Z,30.40
2018-04-22T10:24:06.465Z,30.40
2018-04-22T10:26:35.541Z,30.50
2018-04-22T10:29:05.303Z,30.60
2018-04-22T10:31:43.263Z,30.60
2018-04-22T10:34:26.312Z,31.00
2018-04-22T10:36:58.972Z,31.00
2018-04-22T10:39:29.657Z,31.50
2018-04-22T10:42:00.504Z,31.50
2018-04-22T10:44:32.244Z,31.50
2018-04-22T10:47:03.993Z,31.40
2018-04-22T10:49:34.859Z,31.40
2018-04-22T10:52:04.650Z,31.20
2018-04-22T10:54:34.518Z,31.00
2018-04-22T10:57:04.058Z,31.30
2018-04-22T10:59:35.137Z,31.30
2018-04-22T11:02:04.489Z,31.20
2018-04-22T11:04:35.822Z,31.30
2018-04-22T11:07:07.032Z,31.70
2018-04-22T11:09:35.917Z,31.70
2018-04-22T11:12:05.456Z,31.90
2018-04-22T11:14:43.697Z,32.30
2018-04-22T11:17:23.617Z,32.30
2018-04-22T11:20:04.747Z,32.50
2018-04-22T11:22:35.329Z,32.40
2018-04-22T11:25:04.664Z,32.60
2018-04-22T11:27:36.129Z,32.80
2018-04-22T11:30:07.829Z,32.90
2018-04-22T11:32:39.846Z,32.40
2018-04-22T11:35:23.126Z,32.40
2018-04-22T11:37:56.423Z,32.40
2018-04-22T11:40:28.077Z,32.50
2018-04-22T11:43:08.796Z,32.40
2018-04-22T11:45:43.163Z,32.50
2018-04-22T11:48:14.002Z,32.60
2018-04-22T11:50:44.361Z,32.90
2018-04-22T11:53:20.035Z,33.10
2018-04-22T11:55:48.700Z,33.30
2018-04-22T11:58:17.080Z,33.00
2018-04-22T12:00:45.485Z,33.00
2018-04-22T12:03:13.891Z,32.90
2018-04-22T12:05:43.033Z,32.90
2018-04-22T12:08:12.016Z,32.90
2018-04-22T12:10:40.932Z,33.10
2018-04-22T12:13:09.349Z,33.20
2018-04-22T12:15:37.750Z,33.30
2018-04-22T12:18:06.302Z,33.40
2018-04-22T12:20:34.737Z,32.90
2018-04-22T12:23:03.116Z,32.20
2018-04-22T12:25:31.516Z,31.90
2018-04-22T12:27:59.897Z,31.80
2018-04-22T12:30:29.276Z,31.20
2018-04-22T12:32:57.657Z,31.20
2018-04-22T12:35:26.033Z,31.10
2018-04-22T12:37:57.139Z,31.20
2018-04-22T12:40:26.345Z,31.30
2018-04-22T12:42:54.756Z,31.30
2018-04-22T12:45:45.365Z,31.30
2018-04-22T12:48:30.957Z,32.00
2018-04-22T12:51:12.591Z,32.00
2018-04-22T12:53:41.075Z,32.20
2018-04-22T12:56:09.565Z,32.60
2018-04-22T12:58:38.026Z,32.90
2018-04-22T13:01:06.441Z,33.20
2018-04-22T13:03:34.837Z,33.20
2018-04-22T13:06:03.224Z,33.40
2018-04-22T13:08:32.591Z,33.30
2018-04-22T13:11:00.977Z,33.30
2018-04-22T13:13:29.352Z,33.10
2018-04-22T13:15:57.869Z,32.50
2018-04-22T13:18:26.234Z,31.90
2018-04-22T13:20:55.421Z,31.80
2018-04-22T13:23:23.789Z,31.70
2018-04-22T13:25:52.664Z,32.00
2018-04-22T13:28:21.050Z,32.40
2018-04-22T13:30:49.424Z,32.60
2018-04-22T13:33:17.818Z,32.80
2018-04-22T13:35:46.741Z,32.90
2018-04-22T13:38:16.071Z,32.90
2018-04-22T13:40:44.444Z,32.90
2018-04-22T13:43:13.873Z,32.90
2018-04-22T13:45:42.253Z,33.20
2018-04-22T13:48:10.625Z,33.30
2018-04-22T13:50:39.026Z,33.30
2018-04-22T13:53:07.480Z,33.40
2018-04-22T13:55:35.872Z,33.40
2018-04-22T13:58:04.276Z,33.20
2018-04-22T14:00:32.924Z,33.30
2018-04-22T14:03:01.288Z,33.10
2018-04-22T14:05:29.676Z,32.90
2018-04-22T14:07:58.172Z,32.80
2018-04-22T14:10:26.613Z,32.80
2018-04-22T14:12:55.808Z,32.40
2018-04-22T14:15:24.964Z,32.10
2018-04-22T14:17:53.624Z,32.10
2018-04-22T14:20:22.287Z,32.20
2018-04-22T14:22:50.800Z,32.10
2018-04-22T14:25:20.022Z,31.70
2018-04-22T14:27:49.184Z,31.40
2018-04-22T14:30:17.568Z,31.40
2018-04-22T14:32:46.209Z,31.40
2018-04-22T14:35:15.732Z,31.40
2018-04-22T14:37:44.135Z,31.30
2018-04-22T14:40:12.677Z,31.20
2018-04-22T14:42:41.841Z,30.90
2018-04-22T14:45:28.257Z,30.90
2018-04-22T14:47:56.707Z,30.80
2018-04-22T14:50:25.346Z,30.70
2018-04-22T14:52:53.755Z,30.60
2018-04-22T14:55:22.201Z,30.60
2018-04-22T14:57:51.396Z,30.60
2018-04-22T15:00:19.768Z,30.60
2018-04-22T15:02:48.956Z,30.40
2018-04-22T15:05:17.395Z,30.40
2018-04-22T15:07:45.742Z,30.40
2018-04-22T15:10:14.144Z,30.40
2018-04-22T15:12:42.539Z,30.40
2018-04-22T15:15:11.197Z,30.30
2018-04-22T15:17:39.571Z,30.30
2018-04-22T15:20:07.945Z,30.10
2018-04-22T15:22:36.352Z,30.00
2018-04-22T15:25:04.744Z,30.00
2018-04-22T15:27:33.140Z,29.90
2018-04-22T15:30:01.685Z,29.70
2018-04-22T15:32:30.377Z,29.50
2018-04-22T15:34:58.765Z,29.50
2018-04-22T15:37:27.133Z,29.20
2018-04-22T15:39:55.526Z,29.10
2018-04-22T15:42:23.905Z,29.10
2018-04-22T15:44:52.289Z,29.20
2018-04-22T15:47:20.700Z,29.20
2018-04-22T15:49:49.854Z,29.00
2018-04-22T15:52:18.281Z,29.00
2018-04-22T15:54:47.488Z,28.90
2018-04-22T15:57:15.882Z,28.80
2018-04-22T15:59:44.254Z,28.70
2018-04-22T16:02:12.645Z,28.80
2018-04-22T16:04:41.013Z,28.70
2018-04-22T16:07:09.424Z,28.60
2018-04-22T16:09:37.809Z,28.60
2018-04-22T16:12:06.233Z,28.50
2018-04-22T16:14:34.987Z,28.40
2018-04-22T16:17:03.319Z,28.30
2018-04-22T16:19:31.776Z,28.20
2018-04-22T16:22:00.908Z,27.90
2018-04-22T16:24:29.328Z,27.80
2018-04-22T16:26:57.701Z,27.70
2018-04-22T16:29:26.071Z,27.60
2018-04-22T16:31:54.489Z,27.60
2018-04-22T16:34:22.915Z,27.50
2018-04-22T16:36:51.487Z,27.30
2018-04-22T16:39:19.877Z,27.20
2018-04-22T16:41:48.441Z,27.10
2018-04-22T16:44:16.809Z,27.10
2018-04-22T16:46:45.184Z,26.90
2018-04-22T16:49:13.568Z,26.80
2018-04-22T16:51:41.941Z,26.80
2018-04-22T16:54:10.332Z,26.80
2018-04-22T16:56:38.742Z,26.70
2018-04-22T16:59:07.473Z,26.70
2018-04-22T17:01:35.865Z,26.70
2018-04-22T17:04:04.243Z,26.70
2018-04-22T17:06:32.773Z,26.50
2018-04-22T17:09:01.206Z,26.40
2018-04-22T17:11:29.593Z,26.30
2018-04-22T17:13:57.966Z,26.20
2018-04-22T17:16:26.545Z,26.10
2018-04-22T17:18:54.916Z,26.10
2018-04-22T17:21:23.293Z,26.00
2018-04-22T17:23:51.824Z,25.80
2018-04-22T17:26:20.196Z,25.70
2018-04-22T17:28:48.628Z,25.60
2018-04-22T17:31:17.096Z,25.60
2018-04-22T17:33:46.952Z,25.50
2018-04-22T17:36:16.005Z,25.40
2018-04-22T17:38:44.939Z,25.40
2018-04-22T17:41:13.855Z,25.30
2018-04-22T17:43:43.112Z,25.20
2018-04-22T17:46:11.509Z,25.20
2018-04-22T17:48:40.091Z,25.10
2018-04-22T17:51:08.545Z,25.00
2018-04-22T17:53:36.920Z,24.90
2018-04-22T17:56:05.481Z,24.80
2018-04-22T17:58:34.704Z,24.60
2018-04-22T18:01:03.173Z,24.60
2018-04-22T18:03:32.439Z,24.40
2018-04-22T18:06:00.819Z,24.40
2018-04-22T18:08:29.573Z,24.40
2018-04-22T18:10:58.125Z,24.30
2018-04-22T18:13:26.489Z,24.20
2018-04-22T18:15:56.142Z,24.00
2018-04-22T18:18:24.577Z,24.00
2018-04-22T18:20:53.740Z,23.80
2018-04-22T18:23:22.538Z,23.80
2018-04-22T18:25:51.085Z,23.70
2018-04-22T18:28:19.457Z,23.60
2018-04-22T18:30:47.864Z,23.60
2018-04-22T18:33:16.274Z,23.50
2018-04-22T18:35:45.417Z,23.20
2018-04-22T18:38:14.911Z,23.20
2018-04-22T18:40:43.309Z,23.20
2018-04-22T18:43:11.783Z,23.10
2018-04-22T18:45:40.184Z,23.00
2018-04-22T18:48:08.794Z,22.90
2018-04-22T18:50:37.365Z,22.90
2018-04-22T18:53:05.754Z,22.80
2018-04-22T18:55:35.170Z,22.60
2018-04-22T18:58:03.692Z,22.50
2018-04-22T19:00:32.282Z,22.50
2018-04-22T19:03:00.865Z,22.40
2018-04-22T19:05:29.311Z,22.40
2018-04-22T19:07:58.110Z,22.30
2018-04-22T19:10:26.533Z,22.20
2018-04-22T19:12:55.091Z,22.10
2018-04-22T19:15:23.613Z,21.90
2018-04-22T19:17:53.539Z,21.80
2018-04-22T19:20:22.069Z,21.80
2018-04-22T19:22:51.489Z,21.70
2018-04-22T19:25:19.953Z,21.60
2018-04-22T19:27:48.369Z,21.60
2018-04-22T19:30:17.583Z,21.40
2018-04-22T19:32:46.857Z,21.40
2018-04-22T19:35:16.870Z,21.40
2018-04-22T19:37:46.106Z,21.30
2018-04-22T19:40:14.564Z,21.30
2018-04-22T19:42:43.883Z,21.20
2018-04-22T19:45:13.092Z,21.20
2018-04-22T19:47:41.910Z,21.10
2018-04-22T19:50:10.311Z,21.00
2018-04-22T19:52:39.113Z,21.00
2018-04-22T19:55:09.563Z,20.90
2018-04-22T19:57:38.689Z,20.90
2018-04-22T20:00:07.807Z,20.90
2018-04-22T20:02:37.226Z,20.80
2018-04-22T20:05:05.738Z,20.80
2018-04-22T20:07:34.152Z,20.70
2018-04-22T20:10:02.988Z,20.60
2018-04-22T20:12:32.634Z,20.50
2018-04-22T20:15:01.254Z,20.40
2018-04-22T20:17:29.859Z,20.30
2018-04-22T20:19:59.224Z,20.20
2018-04-22T20:22:29.215Z,20.20
2018-04-22T20:24:57.979Z,20.10
2018-04-22T20:27:27.717Z,20.10
2018-04-22T20:29:56.428Z,20.00
2018-04-22T20:32:25.276Z,19.80
2018-04-22T20:34:53.648Z,19.70
2018-04-22T20:37:22.203Z,19.70
2018-04-22T20:39:50.664Z,19.60
2018-04-22T20:42:19.135Z,19.60
2018-04-22T20:44:47.549Z,19.60
2018-04-22T20:47:15.958Z,19.70
2018-04-22T20:49:44.531Z,19.70
2018-04-22T20:52:13.135Z,19.70
2018-04-22T20:54:41.632Z,19.70
2018-04-22T20:57:10.057Z,19.70
2018-04-22T20:59:38.501Z,19.60
2018-04-22T21:02:07.013Z,19.60
2018-04-22T21:04:35.396Z,19.60
2018-04-22T21:07:04.138Z,19.60
2018-04-22T21:09:32.534Z,19.50
2018-04-22T21:12:00.918Z,19.40
2018-04-22T21:14:29.318Z,19.40
2018-04-22T21:16:57.736Z,19.40
2018-04-22T21:19:26.153Z,19.30
2018-04-22T21:21:54.550Z,19.20
2018-04-22T21:24:24.035Z,19.20
2018-04-22T21:26:54.142Z,19.10
2018-04-22T21:29:23.321Z,19.10
2018-04-22T21:31:51.724Z,19.10
2018-04-22T21:34:20.105Z,19.10
2018-04-22T21:36:48.592Z,19.10
2018-04-22T21:39:16.960Z,18.90
2018-04-22T21:41:45.458Z,18.90
2018-04-22T21:44:13.840Z,18.80
2018-04-22T21:46:42.253Z,18.80
2018-04-22T21:49:10.673Z,18.80
2018-04-22T21:51:39.917Z,18.80
2018-04-22T21:54:14.228Z,18.70
2018-04-22T21:56:43.591Z,18.50
2018-04-22T21:59:12.048Z,18.60
2018-04-22T22:01:40.452Z,18.50
2018-04-22T22:04:14.167Z,18.50
2018-04-22T22:06:42.555Z,18.50
2018-04-22T22:09:10.952Z,18.40
2018-04-22T22:11:40.130Z,18.30
2018-04-22T22:14:08.508Z,18.30
2018-04-22T22:16:36.917Z,18.20
2018-04-22T22:19:06.057Z,18.10
2018-04-22T22:21:34.461Z,18.10
2018-04-22T22:24:02.842Z,18.10
2018-04-22T22:26:31.591Z,18.10
2018-04-22T22:29:00.336Z,18.10
2018-04-22T22:31:30.345Z,18.00
2018-04-22T22:33:59.562Z,17.90
2018-04-22T22:36:28.705Z,17.90
2018-04-22T22:38:57.115Z,17.90
2018-04-22T22:41:25.492Z,17.80
2018-04-22T22:43:54.645Z,17.80
2018-04-22T22:46:23.301Z,17.80
2018-04-22T22:48:52.538Z,17.70
2018-04-22T22:51:20.938Z,17.70
2018-04-22T22:53:49.314Z,17.70
2018-04-22T22:56:17.721Z,17.60
2018-04-22T22:58:46.871Z,17.50
2018-04-22T23:01:15.540Z,17.50
2018-04-22T23:03:43.917Z,17.50
2018-04-22T23:06:12.292Z,17.40
2018-04-22T23:08:40.686Z,17.30
2018-04-22T23:11:09.060Z,17.30
2018-04-22T23:13:37.464Z,17.30
2018-04-22T23:16:05.854Z,17.30
2018-04-22T23:18:34.789Z,17.20
2018-04-22T23:21:03.162Z,17.20
2018-04-22T23:23:31.537Z,17.00
2018-04-22T23:26:00.034Z,17.00
2018-04-22T23:28:28.438Z,17.10
2018-04-22T23:30:56.837Z,16.90
2018-04-22T23:33:25.238Z,16.90
2018-04-22T23:35:54.423Z,17.00
2018-04-22T23:38:22.801Z,16.90
2018-04-22T23:40:51.176Z,17.00
2018-04-22T23:43:19.580Z,17.00
2018-04-22T23:45:48.720Z,16.90
2018-04-22T23:48:17.129Z,16.90
2018-04-22T23:50:45.559Z,16.90
2018-04-22T23:53:14.362Z,16.70
2018-04-22T23:55:42.741Z,16.70
2018-04-22T23:58:11.127Z,16.70
